sensor_id;sensor_type;location;lat;lon;timestamp;P1;durP1;ratioP1;P2;durP2;ratioP2
20802;SDS011;10562;-33.856;151.182;2023-05-29T00:00:18;4.88;;;1.00;;
20802;SDS011;10562;-33.856;151.182;2023-05-29T00:02:50;3.17;;;1.20;;
20802;SDS011;10562;-33.856;151.182;2023-05-29T00:05:20;2.42;;;1.10;;
20802;SDS011;10562;-33.856;151.182;2023-05-29T00:07:51;2.80;;;0.95;;
20802;SDS011;10562;-33.856;151.182;2023-05-29T00:10:22;2.05;;;1.20;;
20802;SDS011;10562;-33.856;151.182;2023-05-29T00:12:55;4.15;;;1.17;;
20802;SDS011;10562;-33.856;151.182;2023-05-29T00:15:27;2.03;;;1.00;;
20802;SDS011;10562;-33.856;151.182;2023-05-29T00:17:58;3.97;;;1.00;;
20802;SDS011;10562;-33.856;151.182;2023-05-29T00:20:29;2.17;;;0.90;;
20802;SDS011;10562;-33.856;151.182;2023-05-29T00:23:02;2.13;;;0.90;;
20802;SDS011;10562;-33.856;151.182;2023-05-29T00:25:34;1.45;;;0.73;;
20802;SDS011;10562;-33.856;151.182;2023-05-29T00:28:08;2.60;;;0.82;;
20802;SDS011;10562;-33.856;151.182;2023-05-29T00:30:39;2.97;;;0.80;;
20802;SDS011;10562;-33.856;151.182;2023-05-29T00:33:11;2.05;;;0.60;;
20802;SDS011;10562;-33.856;151.182;2023-05-29T00:35:41;0.57;;;0.55;;
20802;SDS011;10562;-33.856;151.182;2023-05-29T00:38:12;1.10;;;0.60;;
20802;SDS011;10562;-33.856;151.182;2023-05-29T00:40:43;0.43;;;0.40;;
20802;SDS011;10562;-33.856;151.182;2023-05-29T00:43:15;1.13;;;0.60;;
20802;SDS011;10562;-33.856;151.182;2023-05-29T00:45:46;2.83;;;0.70;;
20802;SDS011;10562;-33.856;151.182;2023-05-29T00:48:17;1.25;;;0.50;;
20802;SDS011;10562;-33.856;151.182;2023-05-29T00:50:48;1.45;;;0.50;;
20802;SDS011;10562;-33.856;151.182;2023-05-29T00:53:19;2.40;;;0.52;;
20802;SDS011;10562;-33.856;151.182;2023-05-29T00:55:51;1.70;;;0.50;;
20802;SDS011;10562;-33.856;151.182;2023-05-29T00:58:24;0.60;;;0.40;;
20802;SDS011;10562;-33.856;151.182;2023-05-29T01:00:56;1.77;;;0.75;;
20802;SDS011;10562;-33.856;151.182;2023-05-29T01:03:27;2.40;;;0.75;;
20802;SDS011;10562;-33.856;151.182;2023-05-29T01:05:59;0.52;;;0.45;;
20802;SDS011;10562;-33.856;151.182;2023-05-29T01:08:30;0.52;;;0.35;;
20802;SDS011;10562;-33.856;151.182;2023-05-29T01:11:03;0.70;;;0.40;;
20802;SDS011;10562;-33.856;151.182;2023-05-29T01:13:43;1.48;;;0.60;;
20802;SDS011;10562;-33.856;151.182;2023-05-29T01:16:16;0.60;;;0.50;;
20802;SDS011;10562;-33.856;151.182;2023-05-29T01:18:57;2.97;;;0.50;;
20802;SDS011;10562;-33.856;151.182;2023-05-29T01:21:42;0.47;;;0.40;;
20802;SDS011;10562;-33.856;151.182;2023-05-29T01:24:21;0.57;;;0.43;;
20802;SDS011;10562;-33.856;151.182;2023-05-29T01:27:03;0.43;;;0.43;;
20802;SDS011;10562;-33.856;151.182;2023-05-29T01:29:37;1.17;;;0.50;;
20802;SDS011;10562;-33.856;151.182;2023-05-29T01:32:11;1.67;;;0.40;;
20802;SDS011;10562;-33.856;151.182;2023-05-29T01:34:42;0.60;;;0.40;;
20802;SDS011;10562;-33.856;151.182;2023-05-29T01:37:14;0.93;;;0.47;;
20802;SDS011;10562;-33.856;151.182;2023-05-29T01:39:45;0.63;;;0.30;;
20802;SDS011;10562;-33.856;151.182;2023-05-29T01:42:17;0.70;;;0.40;;
20802;SDS011;10562;-33.856;151.182;2023-05-29T01:44:48;2.65;;;0.50;;
20802;SDS011;10562;-33.856;151.182;2023-05-29T01:47:19;6.93;;;0.80;;
20802;SDS011;10562;-33.856;151.182;2023-05-29T01:49:50;0.93;;;0.50;;
20802;SDS011;10562;-33.856;151.182;2023-05-29T01:52:22;3.22;;;0.50;;
20802;SDS011;10562;-33.856;151.182;2023-05-29T01:54:53;1.05;;;0.50;;
20802;SDS011;10562;-33.856;151.182;2023-05-29T01:57:26;1.00;;;0.40;;
20802;SDS011;10562;-33.856;151.182;2023-05-29T01:59:57;1.75;;;0.50;;
20802;SDS011;10562;-33.856;151.182;2023-05-29T02:02:28;1.33;;;0.63;;
20802;SDS011;10562;-33.856;151.182;2023-05-29T02:04:59;1.08;;;0.65;;
20802;SDS011;10562;-33.856;151.182;2023-05-29T02:07:31;2.25;;;0.50;;
20802;SDS011;10562;-33.856;151.182;2023-05-29T02:10:03;2.50;;;0.47;;
20802;SDS011;10562;-33.856;151.182;2023-05-29T02:12:36;2.63;;;0.40;;
20802;SDS011;10562;-33.856;151.182;2023-05-29T02:15:07;3.40;;;0.70;;
20802;SDS011;10562;-33.856;151.182;2023-05-29T02:17:39;2.50;;;0.47;;
20802;SDS011;10562;-33.856;151.182;2023-05-29T02:20:10;0.80;;;0.47;;
20802;SDS011;10562;-33.856;151.182;2023-05-29T02:22:41;9.57;;;2.30;;
20802;SDS011;10562;-33.856;151.182;2023-05-29T02:25:12;2.80;;;1.23;;
20802;SDS011;10562;-33.856;151.182;2023-05-29T02:27:45;1.80;;;0.95;;
20802;SDS011;10562;-33.856;151.182;2023-05-29T02:30:16;4.07;;;0.90;;
20802;SDS011;10562;-33.856;151.182;2023-05-29T02:32:47;1.85;;;0.60;;
20802;SDS011;10562;-33.856;151.182;2023-05-29T02:35:18;2.75;;;0.73;;
20802;SDS011;10562;-33.856;151.182;2023-05-29T02:37:49;0.85;;;0.60;;
20802;SDS011;10562;-33.856;151.182;2023-05-29T02:40:20;1.88;;;0.70;;
20802;SDS011;10562;-33.856;151.182;2023-05-29T02:42:52;2.00;;;0.47;;
20802;SDS011;10562;-33.856;151.182;2023-05-29T02:45:23;1.17;;;0.70;;
20802;SDS011;10562;-33.856;151.182;2023-05-29T02:47:54;2.08;;;0.90;;
20802;SDS011;10562;-33.856;151.182;2023-05-29T02:50:25;2.33;;;0.50;;
20802;SDS011;10562;-33.856;151.182;2023-05-29T02:52:56;2.42;;;0.50;;
20802;SDS011;10562;-33.856;151.182;2023-05-29T02:55:27;1.70;;;0.60;;
20802;SDS011;10562;-33.856;151.182;2023-05-29T02:58:00;0.52;;;0.40;;
20802;SDS011;10562;-33.856;151.182;2023-05-29T03:00:31;1.10;;;0.52;;
20802;SDS011;10562;-33.856;151.182;2023-05-29T03:03:01;1.63;;;0.45;;
20802;SDS011;10562;-33.856;151.182;2023-05-29T03:05:32;2.38;;;0.65;;
20802;SDS011;10562;-33.856;151.182;2023-05-29T03:08:03;3.63;;;0.60;;
20802;SDS011;10562;-33.856;151.182;2023-05-29T03:10:34;1.52;;;0.35;;
20802;SDS011;10562;-33.856;151.182;2023-05-29T03:13:07;1.50;;;0.52;;
20802;SDS011;10562;-33.856;151.182;2023-05-29T03:15:38;0.70;;;0.30;;
20802;SDS011;10562;-33.856;151.182;2023-05-29T03:18:09;1.80;;;0.60;;
20802;SDS011;10562;-33.856;151.182;2023-05-29T03:20:39;2.30;;;0.40;;
20802;SDS011;10562;-33.856;151.182;2023-05-29T03:23:10;1.02;;;0.50;;
20802;SDS011;10562;-33.856;151.182;2023-05-29T03:25:42;3.03;;;0.60;;
20802;SDS011;10562;-33.856;151.182;2023-05-29T03:28:14;1.98;;;0.50;;
20802;SDS011;10562;-33.856;151.182;2023-05-29T03:30:45;1.08;;;0.50;;
20802;SDS011;10562;-33.856;151.182;2023-05-29T03:33:17;1.88;;;0.30;;
20802;SDS011;10562;-33.856;151.182;2023-05-29T03:35:48;0.85;;;0.47;;
20802;SDS011;10562;-33.856;151.182;2023-05-29T03:38:19;0.40;;;0.40;;
20802;SDS011;10562;-33.856;151.182;2023-05-29T03:40:50;2.50;;;0.60;;
20802;SDS011;10562;-33.856;151.182;2023-05-29T03:43:23;0.50;;;0.40;;
20802;SDS011;10562;-33.856;151.182;2023-05-29T03:45:54;2.97;;;0.57;;
20802;SDS011;10562;-33.856;151.182;2023-05-29T03:48:24;1.45;;;0.32;;
20802;SDS011;10562;-33.856;151.182;2023-05-29T03:50:55;3.28;;;0.43;;
20802;SDS011;10562;-33.856;151.182;2023-05-29T03:53:26;0.50;;;0.40;;
20802;SDS011;10562;-33.856;151.182;2023-05-29T03:55:57;0.60;;;0.50;;
20802;SDS011;10562;-33.856;151.182;2023-05-29T03:58:30;1.00;;;0.43;;
20802;SDS011;10562;-33.856;151.182;2023-05-29T04:01:02;0.93;;;0.40;;
20802;SDS011;10562;-33.856;151.182;2023-05-29T04:03:33;2.25;;;0.50;;
20802;SDS011;10562;-33.856;151.182;2023-05-29T04:06:04;3.25;;;0.63;;
20802;SDS011;10562;-33.856;151.182;2023-05-29T04:08:35;0.82;;;0.35;;
20802;SDS011;10562;-33.856;151.182;2023-05-29T04:11:06;0.40;;;0.32;;
20802;SDS011;10562;-33.856;151.182;2023-05-29T04:13:40;0.52;;;0.30;;
20802;SDS011;10562;-33.856;151.182;2023-05-29T04:16:11;3.03;;;0.70;;
20802;SDS011;10562;-33.856;151.182;2023-05-29T04:18:41;1.23;;;0.50;;
20802;SDS011;10562;-33.856;151.182;2023-05-29T04:21:12;3.13;;;0.63;;
20802;SDS011;10562;-33.856;151.182;2023-05-29T04:23:43;0.40;;;0.40;;
20802;SDS011;10562;-33.856;151.182;2023-05-29T04:26:14;0.82;;;0.60;;
20802;SDS011;10562;-33.856;151.182;2023-05-29T04:28:46;1.42;;;0.60;;
20802;SDS011;10562;-33.856;151.182;2023-05-29T04:31:18;0.52;;;0.50;;
20802;SDS011;10562;-33.856;151.182;2023-05-29T04:33:51;1.10;;;0.60;;
20802;SDS011;10562;-33.856;151.182;2023-05-29T04:36:23;1.20;;;0.50;;
20802;SDS011;10562;-33.856;151.182;2023-05-29T04:38:54;0.60;;;0.60;;
20802;SDS011;10562;-33.856;151.182;2023-05-29T04:41:25;0.47;;;0.40;;
20802;SDS011;10562;-33.856;151.182;2023-05-29T04:43:59;1.58;;;0.50;;
20802;SDS011;10562;-33.856;151.182;2023-05-29T04:46:30;1.02;;;0.50;;
20802;SDS011;10562;-33.856;151.182;2023-05-29T04:49:01;2.17;;;0.63;;
20802;SDS011;10562;-33.856;151.182;2023-05-29T04:51:31;1.52;;;0.70;;
20802;SDS011;10562;-33.856;151.182;2023-05-29T04:54:02;1.30;;;0.70;;
20802;SDS011;10562;-33.856;151.182;2023-05-29T04:56:33;0.68;;;0.68;;
20802;SDS011;10562;-33.856;151.182;2023-05-29T04:59:06;1.25;;;0.70;;
20802;SDS011;10562;-33.856;151.182;2023-05-29T05:01:37;1.55;;;0.60;;
20802;SDS011;10562;-33.856;151.182;2023-05-29T05:04:09;2.90;;;0.70;;
20802;SDS011;10562;-33.856;151.182;2023-05-29T05:06:41;2.20;;;0.60;;
20802;SDS011;10562;-33.856;151.182;2023-05-29T05:09:12;2.28;;;0.70;;
20802;SDS011;10562;-33.856;151.182;2023-05-29T05:11:43;1.25;;;0.82;;
20802;SDS011;10562;-33.856;151.182;2023-05-29T05:14:16;2.60;;;0.80;;
20802;SDS011;10562;-33.856;151.182;2023-05-29T05:16:46;0.70;;;0.68;;
20802;SDS011;10562;-33.856;151.182;2023-05-29T05:19:18;2.08;;;0.70;;
20802;SDS011;10562;-33.856;151.182;2023-05-29T05:21:49;1.10;;;0.70;;
20802;SDS011;10562;-33.856;151.182;2023-05-29T05:24:20;1.40;;;0.90;;
20802;SDS011;10562;-33.856;151.182;2023-05-29T05:26:51;1.52;;;0.85;;
20802;SDS011;10562;-33.856;151.182;2023-05-29T05:29:23;1.30;;;0.77;;
20802;SDS011;10562;-33.856;151.182;2023-05-29T05:31:54;2.75;;;0.93;;
20802;SDS011;10562;-33.856;151.182;2023-05-29T05:34:25;1.77;;;0.95;;
20802;SDS011;10562;-33.856;151.182;2023-05-29T05:36:56;1.25;;;0.90;;
20802;SDS011;10562;-33.856;151.182;2023-05-29T05:39:28;2.45;;;0.82;;
20802;SDS011;10562;-33.856;151.182;2023-05-29T05:41:58;1.10;;;0.90;;
20802;SDS011;10562;-33.856;151.182;2023-05-29T05:44:32;1.92;;;0.90;;
20802;SDS011;10562;-33.856;151.182;2023-05-29T05:47:04;1.40;;;0.95;;
20802;SDS011;10562;-33.856;151.182;2023-05-29T05:49:35;1.42;;;1.00;;
20802;SDS011;10562;-33.856;151.182;2023-05-29T05:52:06;1.77;;;1.10;;
20802;SDS011;10562;-33.856;151.182;2023-05-29T05:54:37;1.67;;;1.08;;
20802;SDS011;10562;-33.856;151.182;2023-05-29T05:57:08;1.40;;;1.00;;
20802;SDS011;10562;-33.856;151.182;2023-05-29T05:59:40;2.80;;;1.00;;
20802;SDS011;10562;-33.856;151.182;2023-05-29T06:02:11;1.67;;;0.93;;
20802;SDS011;10562;-33.856;151.182;2023-05-29T06:04:42;2.90;;;0.90;;
20802;SDS011;10562;-33.856;151.182;2023-05-29T06:07:13;2.33;;;1.08;;
20802;SDS011;10562;-33.856;151.182;2023-05-29T06:09:43;1.55;;;0.90;;
20802;SDS011;10562;-33.856;151.182;2023-05-29T06:12:14;3.42;;;1.00;;
20802;SDS011;10562;-33.856;151.182;2023-05-29T06:14:47;1.48;;;0.85;;
20802;SDS011;10562;-33.856;151.182;2023-05-29T06:17:18;2.63;;;0.93;;
20802;SDS011;10562;-33.856;151.182;2023-05-29T06:19:50;3.40;;;0.90;;
20802;SDS011;10562;-33.856;151.182;2023-05-29T06:22:22;3.45;;;0.90;;
20802;SDS011;10562;-33.856;151.182;2023-05-29T06:24:52;4.57;;;0.93;;
20802;SDS011;10562;-33.856;151.182;2023-05-29T06:27:23;2.22;;;1.00;;
20802;SDS011;10562;-33.856;151.182;2023-05-29T06:29:56;3.25;;;0.80;;
20802;SDS011;10562;-33.856;151.182;2023-05-29T06:32:27;4.18;;;0.70;;
20802;SDS011;10562;-33.856;151.182;2023-05-29T06:34:58;1.23;;;0.50;;
20802;SDS011;10562;-33.856;151.182;2023-05-29T06:37:29;1.67;;;0.60;;
20802;SDS011;10562;-33.856;151.182;2023-05-29T06:40:00;2.92;;;0.80;;
20802;SDS011;10562;-33.856;151.182;2023-05-29T06:42:32;1.65;;;0.80;;
20802;SDS011;10562;-33.856;151.182;2023-05-29T06:45:05;4.68;;;0.80;;
20802;SDS011;10562;-33.856;151.182;2023-05-29T06:47:37;1.75;;;0.85;;
20802;SDS011;10562;-33.856;151.182;2023-05-29T06:50:08;5.78;;;0.90;;
20802;SDS011;10562;-33.856;151.182;2023-05-29T06:52:39;2.83;;;0.70;;
20802;SDS011;10562;-33.856;151.182;2023-05-29T06:55:11;2.17;;;0.63;;
20802;SDS011;10562;-33.856;151.182;2023-05-29T06:57:43;3.10;;;0.70;;
20802;SDS011;10562;-33.856;151.182;2023-05-29T07:00:17;1.98;;;0.90;;
20802;SDS011;10562;-33.856;151.182;2023-05-29T07:02:49;3.03;;;1.05;;
20802;SDS011;10562;-33.856;151.182;2023-05-29T07:05:19;2.72;;;1.00;;
20802;SDS011;10562;-33.856;151.182;2023-05-29T07:07:50;3.00;;;1.10;;
20802;SDS011;10562;-33.856;151.182;2023-05-29T07:10:21;3.75;;;1.20;;
20802;SDS011;10562;-33.856;151.182;2023-05-29T07:12:52;1.42;;;0.70;;
20802;SDS011;10562;-33.856;151.182;2023-05-29T07:15:24;2.25;;;0.85;;
20802;SDS011;10562;-33.856;151.182;2023-05-29T07:17:55;3.65;;;0.90;;
20802;SDS011;10562;-33.856;151.182;2023-05-29T07:20:26;2.40;;;0.93;;
20802;SDS011;10562;-33.856;151.182;2023-05-29T07:22:57;1.27;;;0.70;;
20802;SDS011;10562;-33.856;151.182;2023-05-29T07:25:28;1.90;;;0.88;;
20802;SDS011;10562;-33.856;151.182;2023-05-29T07:27:59;2.55;;;0.90;;
20802;SDS011;10562;-33.856;151.182;2023-05-29T07:30:32;4.20;;;1.00;;
20802;SDS011;10562;-33.856;151.182;2023-05-29T07:33:03;2.20;;;1.08;;
20802;SDS011;10562;-33.856;151.182;2023-05-29T07:35:34;3.22;;;0.82;;
20802;SDS011;10562;-33.856;151.182;2023-05-29T07:38:05;8.60;;;1.25;;
20802;SDS011;10562;-33.856;151.182;2023-05-29T07:40:36;7.45;;;1.17;;
20802;SDS011;10562;-33.856;151.182;2023-05-29T07:43:07;6.20;;;1.60;;
20802;SDS011;10562;-33.856;151.182;2023-05-29T07:45:39;2.95;;;1.17;;
20802;SDS011;10562;-33.856;151.182;2023-05-29T07:48:10;3.47;;;1.20;;
20802;SDS011;10562;-33.856;151.182;2023-05-29T07:50:41;3.05;;;1.15;;
20802;SDS011;10562;-33.856;151.182;2023-05-29T07:53:12;3.22;;;1.20;;
20802;SDS011;10562;-33.856;151.182;2023-05-29T07:55:43;2.67;;;1.40;;
20802;SDS011;10562;-33.856;151.182;2023-05-29T07:58:13;3.20;;;1.00;;
20802;SDS011;10562;-33.856;151.182;2023-05-29T08:00:46;5.57;;;1.40;;
20802;SDS011;10562;-33.856;151.182;2023-05-29T08:03:17;3.25;;;1.05;;
20802;SDS011;10562;-33.856;151.182;2023-05-29T08:05:48;7.50;;;1.27;;
20802;SDS011;10562;-33.856;151.182;2023-05-29T08:08:18;2.35;;;0.93;;
20802;SDS011;10562;-33.856;151.182;2023-05-29T08:10:49;4.60;;;1.35;;
20802;SDS011;10562;-33.856;151.182;2023-05-29T08:13:20;2.63;;;1.17;;
20802;SDS011;10562;-33.856;151.182;2023-05-29T08:15:53;3.45;;;0.90;;
20802;SDS011;10562;-33.856;151.182;2023-05-29T08:18:25;4.85;;;1.05;;
20802;SDS011;10562;-33.856;151.182;2023-05-29T08:20:55;2.97;;;1.10;;
20802;SDS011;10562;-33.856;151.182;2023-05-29T08:23:26;2.55;;;1.10;;
20802;SDS011;10562;-33.856;151.182;2023-05-29T08:25:58;3.08;;;1.35;;
20802;SDS011;10562;-33.856;151.182;2023-05-29T08:28:29;5.22;;;1.30;;
20802;SDS011;10562;-33.856;151.182;2023-05-29T08:31:01;3.10;;;1.40;;
20802;SDS011;10562;-33.856;151.182;2023-05-29T08:33:32;3.55;;;1.65;;
20802;SDS011;10562;-33.856;151.182;2023-05-29T08:36:03;2.92;;;1.30;;
20802;SDS011;10562;-33.856;151.182;2023-05-29T08:38:34;5.35;;;1.60;;
20802;SDS011;10562;-33.856;151.182;2023-05-29T08:41:05;4.03;;;1.60;;
20802;SDS011;10562;-33.856;151.182;2023-05-29T08:43:39;3.67;;;1.60;;
20802;SDS011;10562;-33.856;151.182;2023-05-29T08:46:13;4.10;;;1.40;;
20802;SDS011;10562;-33.856;151.182;2023-05-29T08:48:47;3.22;;;1.30;;
20802;SDS011;10562;-33.856;151.182;2023-05-29T08:51:19;3.22;;;1.35;;
20802;SDS011;10562;-33.856;151.182;2023-05-29T08:53:55;2.70;;;1.30;;
20802;SDS011;10562;-33.856;151.182;2023-05-29T08:56:26;2.90;;;1.60;;
20802;SDS011;10562;-33.856;151.182;2023-05-29T08:58:57;3.65;;;1.52;;
20802;SDS011;10562;-33.856;151.182;2023-05-29T09:01:31;6.35;;;1.80;;
20802;SDS011;10562;-33.856;151.182;2023-05-29T09:04:03;5.28;;;1.73;;
20802;SDS011;10562;-33.856;151.182;2023-05-29T09:06:34;3.17;;;1.60;;
20802;SDS011;10562;-33.856;151.182;2023-05-29T09:09:07;3.35;;;1.50;;
20802;SDS011;10562;-33.856;151.182;2023-05-29T09:11:38;4.10;;;2.25;;
20802;SDS011;10562;-33.856;151.182;2023-05-29T09:14:11;6.28;;;1.85;;
20802;SDS011;10562;-33.856;151.182;2023-05-29T09:16:58;4.10;;;1.40;;
20802;SDS011;10562;-33.856;151.182;2023-05-29T09:19:29;4.43;;;1.83;;
20802;SDS011;10562;-33.856;151.182;2023-05-29T09:22:01;3.67;;;1.58;;
20802;SDS011;10562;-33.856;151.182;2023-05-29T09:24:33;3.17;;;1.77;;
20802;SDS011;10562;-33.856;151.182;2023-05-29T09:27:05;4.40;;;1.90;;
20802;SDS011;10562;-33.856;151.182;2023-05-29T09:29:38;4.05;;;1.90;;
20802;SDS011;10562;-33.856;151.182;2023-05-29T09:32:14;3.15;;;1.80;;
20802;SDS011;10562;-33.856;151.182;2023-05-29T09:34:48;3.33;;;1.73;;
20802;SDS011;10562;-33.856;151.182;2023-05-29T09:37:25;4.15;;;1.83;;
20802;SDS011;10562;-33.856;151.182;2023-05-29T09:39:56;4.18;;;1.90;;
20802;SDS011;10562;-33.856;151.182;2023-05-29T09:42:27;5.28;;;1.83;;
20802;SDS011;10562;-33.856;151.182;2023-05-29T09:44:59;8.05;;;2.20;;
20802;SDS011;10562;-33.856;151.182;2023-05-29T09:47:34;4.28;;;2.00;;
20802;SDS011;10562;-33.856;151.182;2023-05-29T09:50:08;5.03;;;2.10;;
20802;SDS011;10562;-33.856;151.182;2023-05-29T09:52:48;6.72;;;2.42;;
20802;SDS011;10562;-33.856;151.182;2023-05-29T09:55:20;4.82;;;2.10;;
20802;SDS011;10562;-33.856;151.182;2023-05-29T09:57:53;5.60;;;2.10;;
20802;SDS011;10562;-33.856;151.182;2023-05-29T10:00:24;5.30;;;2.30;;
20802;SDS011;10562;-33.856;151.182;2023-05-29T10:02:57;6.93;;;2.65;;
20802;SDS011;10562;-33.856;151.182;2023-05-29T10:05:28;5.60;;;2.60;;
20802;SDS011;10562;-33.856;151.182;2023-05-29T10:07:59;6.00;;;2.25;;
20802;SDS011;10562;-33.856;151.182;2023-05-29T10:10:31;5.65;;;2.20;;
20802;SDS011;10562;-33.856;151.182;2023-05-29T10:13:03;7.38;;;2.50;;
20802;SDS011;10562;-33.856;151.182;2023-05-29T10:15:38;6.93;;;2.50;;
20802;SDS011;10562;-33.856;151.182;2023-05-29T10:18:15;6.53;;;2.65;;
20802;SDS011;10562;-33.856;151.182;2023-05-29T10:20:49;5.43;;;2.50;;
20802;SDS011;10562;-33.856;151.182;2023-05-29T10:23:22;8.15;;;2.72;;
20802;SDS011;10562;-33.856;151.182;2023-05-29T10:25:55;6.00;;;2.50;;
20802;SDS011;10562;-33.856;151.182;2023-05-29T10:28:31;6.07;;;2.80;;
20802;SDS011;10562;-33.856;151.182;2023-05-29T10:31:05;6.25;;;2.72;;
20802;SDS011;10562;-33.856;151.182;2023-05-29T10:33:47;5.50;;;2.58;;
20802;SDS011;10562;-33.856;151.182;2023-05-29T10:36:28;6.15;;;2.50;;
20802;SDS011;10562;-33.856;151.182;2023-05-29T10:39:04;7.88;;;2.90;;
20802;SDS011;10562;-33.856;151.182;2023-05-29T10:41:35;6.03;;;2.35;;
20802;SDS011;10562;-33.856;151.182;2023-05-29T10:47:07;7.80;;;2.58;;
20802;SDS011;10562;-33.856;151.182;2023-05-29T10:49:40;7.35;;;2.67;;
20802;SDS011;10562;-33.856;151.182;2023-05-29T10:52:19;7.97;;;2.95;;
20802;SDS011;10562;-33.856;151.182;2023-05-29T10:54:51;8.60;;;2.65;;
20802;SDS011;10562;-33.856;151.182;2023-05-29T10:57:23;8.13;;;2.10;;
20802;SDS011;10562;-33.856;151.182;2023-05-29T11:00:02;10.25;;;3.42;;
20802;SDS011;10562;-33.856;151.182;2023-05-29T11:02:40;15.50;;;4.20;;
20802;SDS011;10562;-33.856;151.182;2023-05-29T11:05:23;10.55;;;3.38;;
20802;SDS011;10562;-33.856;151.182;2023-05-29T11:07:57;9.38;;;2.60;;
20802;SDS011;10562;-33.856;151.182;2023-05-29T11:10:44;6.85;;;2.67;;
20802;SDS011;10562;-33.856;151.182;2023-05-29T11:13:25;8.52;;;2.75;;
20802;SDS011;10562;-33.856;151.182;2023-05-29T11:16:05;6.15;;;2.28;;
20802;SDS011;10562;-33.856;151.182;2023-05-29T11:18:49;6.78;;;2.40;;
20802;SDS011;10562;-33.856;151.182;2023-05-29T11:21:40;10.30;;;2.70;;
20802;SDS011;10562;-33.856;151.182;2023-05-29T11:24:25;7.07;;;3.00;;
20802;SDS011;10562;-33.856;151.182;2023-05-29T11:26:57;6.90;;;2.80;;
20802;SDS011;10562;-33.856;151.182;2023-05-29T11:29:32;6.32;;;2.70;;
20802;SDS011;10562;-33.856;151.182;2023-05-29T11:32:04;9.98;;;2.72;;
20802;SDS011;10562;-33.856;151.182;2023-05-29T11:34:35;9.15;;;2.65;;
20802;SDS011;10562;-33.856;151.182;2023-05-29T11:37:12;6.13;;;2.45;;
20802;SDS011;10562;-33.856;151.182;2023-05-29T11:39:43;7.10;;;2.70;;
20802;SDS011;10562;-33.856;151.182;2023-05-29T11:42:14;7.03;;;2.65;;
20802;SDS011;10562;-33.856;151.182;2023-05-29T11:44:45;4.97;;;2.30;;
20802;SDS011;10562;-33.856;151.182;2023-05-29T11:47:17;4.45;;;1.95;;
20802;SDS011;10562;-33.856;151.182;2023-05-29T11:49:49;5.88;;;2.10;;
20802;SDS011;10562;-33.856;151.182;2023-05-29T11:52:21;5.22;;;1.85;;
20802;SDS011;10562;-33.856;151.182;2023-05-29T11:54:52;9.07;;;2.00;;
20802;SDS011;10562;-33.856;151.182;2023-05-29T11:57:26;5.35;;;1.75;;
20802;SDS011;10562;-33.856;151.182;2023-05-29T11:59:56;4.75;;;1.67;;
20802;SDS011;10562;-33.856;151.182;2023-05-29T12:02:30;5.63;;;1.80;;
20802;SDS011;10562;-33.856;151.182;2023-05-29T12:05:01;4.88;;;1.80;;
20802;SDS011;10562;-33.856;151.182;2023-05-29T12:07:34;4.00;;;1.70;;
20802;SDS011;10562;-33.856;151.182;2023-05-29T12:10:11;3.58;;;1.45;;
20802;SDS011;10562;-33.856;151.182;2023-05-29T12:12:46;5.10;;;1.80;;
20802;SDS011;10562;-33.856;151.182;2023-05-29T12:15:17;4.07;;;1.73;;
20802;SDS011;10562;-33.856;151.182;2023-05-29T12:17:48;5.65;;;1.73;;
20802;SDS011;10562;-33.856;151.182;2023-05-29T12:20:22;3.22;;;1.55;;
20802;SDS011;10562;-33.856;151.182;2023-05-29T12:22:58;4.13;;;1.77;;
20802;SDS011;10562;-33.856;151.182;2023-05-29T12:25:30;3.00;;;1.50;;
20802;SDS011;10562;-33.856;151.182;2023-05-29T12:28:03;3.85;;;1.60;;
20802;SDS011;10562;-33.856;151.182;2023-05-29T12:30:36;2.83;;;1.60;;
20802;SDS011;10562;-33.856;151.182;2023-05-29T12:33:09;3.17;;;1.30;;
20802;SDS011;10562;-33.856;151.182;2023-05-29T12:36:07;3.22;;;1.58;;
20802;SDS011;10562;-33.856;151.182;2023-05-29T12:38:48;2.40;;;1.33;;
20802;SDS011;10562;-33.856;151.182;2023-05-29T12:41:26;3.33;;;1.38;;
20802;SDS011;10562;-33.856;151.182;2023-05-29T12:43:57;4.88;;;1.50;;
20802;SDS011;10562;-33.856;151.182;2023-05-29T12:46:35;5.70;;;1.75;;
20802;SDS011;10562;-33.856;151.182;2023-05-29T12:49:13;3.28;;;1.48;;
20802;SDS011;10562;-33.856;151.182;2023-05-29T12:51:46;3.65;;;1.42;;
20802;SDS011;10562;-33.856;151.182;2023-05-29T12:54:20;2.95;;;1.52;;
20802;SDS011;10562;-33.856;151.182;2023-05-29T12:56:51;3.58;;;1.60;;
20802;SDS011;10562;-33.856;151.182;2023-05-29T12:59:22;4.75;;;1.65;;
20802;SDS011;10562;-33.856;151.182;2023-05-29T13:01:53;4.40;;;1.30;;
20802;SDS011;10562;-33.856;151.182;2023-05-29T13:04:23;4.97;;;1.38;;
20802;SDS011;10562;-33.856;151.182;2023-05-29T13:06:54;5.15;;;1.63;;
20802;SDS011;10562;-33.856;151.182;2023-05-29T13:09:27;4.38;;;1.67;;
20802;SDS011;10562;-33.856;151.182;2023-05-29T13:11:59;3.63;;;1.60;;
20802;SDS011;10562;-33.856;151.182;2023-05-29T13:14:30;4.63;;;1.92;;
20802;SDS011;10562;-33.856;151.182;2023-05-29T13:17:01;3.45;;;1.60;;
20802;SDS011;10562;-33.856;151.182;2023-05-29T13:19:32;5.40;;;1.52;;
20802;SDS011;10562;-33.856;151.182;2023-05-29T13:22:03;4.18;;;1.65;;
20802;SDS011;10562;-33.856;151.182;2023-05-29T13:24:36;4.53;;;1.70;;
20802;SDS011;10562;-33.856;151.182;2023-05-29T13:27:06;2.92;;;1.55;;
20802;SDS011;10562;-33.856;151.182;2023-05-29T13:29:39;5.43;;;1.60;;
20802;SDS011;10562;-33.856;151.182;2023-05-29T13:32:10;4.35;;;1.67;;
20802;SDS011;10562;-33.856;151.182;2023-05-29T13:34:41;7.85;;;1.98;;
20802;SDS011;10562;-33.856;151.182;2023-05-29T13:37:12;4.05;;;1.75;;
20802;SDS011;10562;-33.856;151.182;2023-05-29T13:39:44;4.13;;;1.95;;
20802;SDS011;10562;-33.856;151.182;2023-05-29T13:42:15;3.90;;;1.70;;
20802;SDS011;10562;-33.856;151.182;2023-05-29T13:44:47;4.80;;;1.80;;
20802;SDS011;10562;-33.856;151.182;2023-05-29T13:47:18;4.55;;;1.92;;
20802;SDS011;10562;-33.856;151.182;2023-05-29T13:49:49;5.28;;;2.03;;
20802;SDS011;10562;-33.856;151.182;2023-05-29T13:52:20;4.78;;;1.88;;
20802;SDS011;10562;-33.856;151.182;2023-05-29T13:54:53;5.00;;;1.83;;
20802;SDS011;10562;-33.856;151.182;2023-05-29T13:57:24;7.38;;;2.10;;
20802;SDS011;10562;-33.856;151.182;2023-05-29T13:59:55;6.38;;;2.03;;
20802;SDS011;10562;-33.856;151.182;2023-05-29T14:02:25;4.82;;;1.90;;
20802;SDS011;10562;-33.856;151.182;2023-05-29T14:04:56;6.65;;;1.80;;
20802;SDS011;10562;-33.856;151.182;2023-05-29T14:07:27;4.85;;;1.80;;
20802;SDS011;10562;-33.856;151.182;2023-05-29T14:10:00;5.13;;;1.63;;
20802;SDS011;10562;-33.856;151.182;2023-05-29T14:12:31;12.30;;;1.73;;
20802;SDS011;10562;-33.856;151.182;2023-05-29T14:15:01;5.70;;;1.55;;
20802;SDS011;10562;-33.856;151.182;2023-05-29T14:17:33;5.32;;;1.60;;
20802;SDS011;10562;-33.856;151.182;2023-05-29T14:20:03;4.10;;;1.35;;
20802;SDS011;10562;-33.856;151.182;2023-05-29T14:22:35;3.67;;;1.70;;
20802;SDS011;10562;-33.856;151.182;2023-05-29T14:25:08;4.45;;;1.40;;
20802;SDS011;10562;-33.856;151.182;2023-05-29T14:27:39;3.60;;;1.40;;
20802;SDS011;10562;-33.856;151.182;2023-05-29T14:30:11;4.63;;;1.20;;
20802;SDS011;10562;-33.856;151.182;2023-05-29T14:32:41;4.43;;;1.38;;
20802;SDS011;10562;-33.856;151.182;2023-05-29T14:35:12;3.90;;;1.50;;
20802;SDS011;10562;-33.856;151.182;2023-05-29T14:37:44;5.68;;;1.30;;
20802;SDS011;10562;-33.856;151.182;2023-05-29T14:40:18;3.67;;;1.40;;